Batam/hang Nadim, Indonesia

4:09 AM WIB on April 24, 2017 (GMT +0700)
Batam Hang Nadim | | Change Station

Elev 125 ft 1.12 °N, 104.12 °E | Updated 39 minutes ago

Mostly Cloudy
Mostly Cloudy
79 °F
Feels Like 79 °F
N
2
Wind Variable Wind from Variable

Today
High -- | Low -- °F
--% Chance of Precip.
Yesterday
High -- | Low -- °F
Precip. -- in
Pressure 29.86 in
Visibility 6.2 miles
Clouds Few 18000 ft
Mostly Cloudy 20000 ft
Dew Point 77 °F
Humidity 94%
Rainfall 0.00 in
Snow Depth Not available.
5:57 AM 6:06 PM
Waning Crescent, 9% visible
METAR WIDD 232030Z AUTO VRB02KT 9999NDV FEW180 BKN200 26/25 Q1011
Pressure 29.86 in
Visibility 6.2 miles
Clouds Few 18000 ft
Mostly Cloudy 20000 ft
Dew Point 77 °F
Humidity 94%
Rainfall 0.00 in
Snow Depth Not available.
5:57 AM 6:06 PM
Waning Crescent, 9% visible
METAR WIDD 232030Z AUTO VRB02KT 9999NDV FEW180 BKN200 26/25 Q1011

Get Severe Weather Alerts

Thanks for signing up!

Be on the lookout for a verification email in your inbox.

You'll start receiving the daily forecast at 8 AM.

×

10-Day Weather Forecast

×

Almanac

Astronomy

Apr. 24, 2017 Rise Set
Actual Time
Civil Twilight
Nautical Twilight
Astronomical Twilight
Moon
Length of Visible Light
Length of Day
Tomorrow will be .
, % of the Moon is Illuminated

Today's Extremes

Country Highs Country Lows

Community

WunderPhotos

WunderBlog® & News

Nearby

Air Quality

  Air Quality AQ Index Pollutant
Not available.

Snow Depth

Station Depth Elevation

Earthquake Activity

City Distance Mag. Time & Date
Minimum magnitude displayed is 2.5.

Coastal Water Temperatures

Place Temperature

Stations

Nearby Weather Stations

Station Location Temp. Windchill Dew Point Humidity Wind Precip. Elev Updated Type